Time;durP1;ratioP1;P1;durP2;ratioP2;P2;SDS_P1;SDS_P2;PMS_P1;PMS_P2;Temp;Humidity;BMP_temperature;BMP_pressure;BME280_temperature;BME280_humidity;BME280_pressure;Samples;Min_cycle;Max_cycle;Signal;HPM_P1;HPM_P2
2021/11/26 00:02:22;;;;;;;6.95;3.80;;;;;;;-2.37;78.88;96577.91;5095455;28;20356;-65
2021/11/26 00:04:49;;;;;;;4.95;3.95;;;;;;;-2.36;78.37;96572.81;5095479;28;20050;-64
2021/11/26 00:07:15;;;;;;;6.57;4.20;;;;;;;-2.41;78.19;96567.63;5095460;28;20031;-67
2021/11/26 00:09:40;;;;;;;5.40;4.28;;;;;;;-2.35;78.06;96566.84;5095378;28;20016;-63
2021/11/26 00:12:07;;;;;;;4.97;3.55;;;;;;;-2.29;78.03;96558.34;5095403;28;20016;-67
2021/11/26 00:14:34;;;;;;;5.43;3.92;;;;;;;-2.22;77.60;96567.00;5095378;28;20419;-65
2021/11/26 00:17:03;;;;;;;6.70;3.97;;;;;;;-2.24;77.48;96559.28;5095438;28;20024;-65
2021/11/26 00:19:29;;;;;;;6.03;4.45;;;;;;;-2.25;77.81;96561.84;5095202;28;20028;-64
2021/11/26 00:21:57;;;;;;;5.43;4.18;;;;;;;-2.33;78.57;96554.03;5095047;28;20036;-63
2021/11/26 00:24:23;;;;;;;5.78;4.15;;;;;;;-2.32;78.99;96554.06;5095019;28;20382;-65
2021/11/26 00:26:49;;;;;;;5.78;4.05;;;;;;;-2.31;78.67;96544.69;5094914;28;20013;-64
2021/11/26 00:29:15;;;;;;;9.25;3.72;;;;;;;-2.37;78.59;96539.47;5094976;28;20024;-64
2021/11/26 00:31:41;;;;;;;5.40;3.92;;;;;;;-2.38;78.87;96538.59;5094916;28;20025;-64
2021/11/26 00:34:07;;;;;;;5.05;3.75;;;;;;;-2.32;78.53;96536.13;5094736;28;20054;-67
2021/11/26 00:36:34;;;;;;;4.25;3.28;;;;;;;-2.31;78.12;96527.63;5094911;28;20521;-66
2021/11/26 00:39:01;;;;;;;5.72;4.28;;;;;;;-2.30;78.22;96531.88;5094586;28;20103;-65
2021/11/26 00:41:27;;;;;;;4.95;3.88;;;;;;;-2.24;78.63;96522.53;5094702;28;20496;-64
2021/11/26 00:43:53;;;;;;;4.82;4.30;;;;;;;-2.29;78.74;96525.91;5094634;28;20420;-63
2021/11/26 00:46:19;;;;;;;5.47;4.07;;;;;;;-2.30;79.30;96515.63;5094568;28;20024;-62
2021/11/26 00:48:45;;;;;;;7.35;4.22;;;;;;;-2.28;79.32;96522.50;5094625;28;20031;-63
2021/11/26 00:51:11;;;;;;;6.03;4.00;;;;;;;-2.23;78.77;96522.56;5094585;28;20028;-67
2021/11/26 00:53:37;;;;;;;5.10;3.65;;;;;;;-2.22;78.15;96526.88;5094508;28;20020;-64
2021/11/26 00:56:03;;;;;;;8.43;4.22;;;;;;;-2.29;78.71;96525.91;5094645;28;20058;-66
2021/11/26 00:58:29;;;;;;;6.18;4.75;;;;;;;-2.31;79.18;96512.25;5094330;28;20470;-66
2021/11/26 01:00:55;;;;;;;6.70;3.90;;;;;;;-2.21;78.88;96523.44;5093972;28;20081;-65
2021/11/26 01:03:21;;;;;;;4.35;3.15;;;;;;;-2.20;78.72;96519.19;5093811;28;20028;-67
2021/11/26 01:05:48;;;;;;;4.78;3.92;;;;;;;-2.29;78.12;96507.97;5094239;28;20060;-65
2021/11/26 01:08:13;;;;;;;7.13;4.13;;;;;;;-2.28;78.45;96507.13;5094090;28;20028;-65
2021/11/26 01:10:40;;;;;;;9.15;4.22;;;;;;;-2.32;78.70;96502.81;5094121;28;20045;-65
2021/11/26 01:13:06;;;;;;;6.53;4.15;;;;;;;-2.28;78.23;96496.88;5094147;28;20028;-65
2021/11/26 01:15:33;;;;;;;6.13;3.83;;;;;;;-2.28;77.70;96493.47;5094112;28;20031;-66
2021/11/26 01:18:00;;;;;;;10.07;4.22;;;;;;;-2.33;77.74;96487.41;5093995;28;20052;-63
2021/11/26 01:20:28;;;;;;;6.78;4.05;;;;;;;-2.30;77.67;96482.31;5093810;28;20118;-65
2021/11/26 01:22:54;;;;;;;5.40;3.90;;;;;;;-2.32;77.65;96474.63;5093924;28;20415;-64
2021/11/26 01:25:21;;;;;;;7.00;4.25;;;;;;;-2.32;77.73;96476.34;5093992;28;20104;-65
2021/11/26 01:27:47;;;;;;;6.45;4.85;;;;;;;-2.46;79.11;96465.91;5093976;28;20024;-66
2021/11/26 01:30:32;;;;;;;7.40;4.63;;;;;;;-2.44;79.08;96470.19;5093861;28;20024;-66
2021/11/26 01:33:01;;;;;;;10.70;4.25;;;;;;;-2.38;79.35;96468.56;5093839;28;20028;-64
2021/11/26 01:35:28;;;;;;;9.93;4.68;;;;;;;-2.32;79.24;96472.06;5093648;28;20486;-63
2021/11/26 01:37:54;;;;;;;11.75;5.60;;;;;;;-2.32;79.10;96476.34;5093670;28;20076;-65
2021/11/26 01:40:20;;;;;;;10.57;6.53;;;;;;;-2.25;79.26;96461.88;5093731;28;20036;-67
2021/11/26 01:42:48;;;;;;;10.98;5.43;;;;;;;-2.19;78.06;96454.25;5093528;28;20374;-67
2021/11/26 01:45:15;;;;;;;5.45;3.97;;;;;;;-2.22;77.40;96449.09;5093427;28;20020;-63
2021/11/26 01:47:40;;;;;;;6.43;4.47;;;;;;;-2.22;76.95;96439.72;5093662;28;20016;-66
2021/11/26 01:50:08;;;;;;;5.55;4.20;;;;;;;-2.25;77.36;96428.56;5093446;28;20415;-64
2021/11/26 01:52:34;;;;;;;6.15;4.28;;;;;;;-2.36;77.91;96426.75;5093390;28;20469;-63
2021/11/26 01:55:00;;;;;;;13.13;4.38;;;;;;;-2.31;78.07;96429.34;5093357;28;20466;-63
2021/11/26 01:57:26;;;;;;;7.57;4.07;;;;;;;-2.33;78.11;96424.22;5093330;28;20043;-67
2021/11/26 01:59:52;;;;;;;7.43;4.10;;;;;;;-2.29;78.18;96417.41;5093469;28;20495;-66
2021/11/26 02:02:18;;;;;;;7.82;4.57;;;;;;;-2.34;78.63;96419.94;5093327;28;20027;-65
2021/11/26 02:04:44;;;;;;;13.20;5.30;;;;;;;-2.41;79.10;96406.19;5093334;28;20020;-63
2021/11/26 02:07:10;;;;;;;8.00;4.72;;;;;;;-2.34;78.67;96416.50;5093318;28;20488;-63
2021/11/26 02:09:36;;;;;;;8.23;3.55;;;;;;;-2.30;78.42;96411.44;5093305;28;20119;-64
2021/11/26 02:12:02;;;;;;;6.22;4.18;;;;;;;-2.28;78.05;96399.47;5093209;28;20031;-66
2021/11/26 02:14:30;;;;;;;9.88;4.75;;;;;;;-2.25;78.01;96390.97;5092768;28;20050;-67
2021/11/26 02:16:55;;;;;;;14.90;5.60;;;;;;;-2.23;77.68;96396.13;5093164;28;20040;-65
2021/11/26 02:19:22;;;;;;;9.13;5.28;;;;;;;-2.23;77.82;96396.97;5093174;28;20028;-63
2021/11/26 02:21:48;;;;;;;9.82;4.88;;;;;;;-2.26;77.64;96391.81;5092949;28;20040;-65
2021/11/26 02:24:14;;;;;;;9.02;5.13;;;;;;;-2.24;78.33;96382.44;5093281;28;20028;-66
2021/11/26 02:26:42;;;;;;;11.45;5.68;;;;;;;-2.18;77.84;96379.06;5093035;28;20024;-64
2021/11/26 02:29:09;;;;;;;9.45;5.68;;;;;;;-2.19;78.19;96385.91;5093073;28;20105;-67
2021/11/26 02:31:35;;;;;;;8.55;5.28;;;;;;;-2.16;78.13;96385.91;5093110;28;20099;-63
2021/11/26 02:34:01;;;;;;;8.68;5.18;;;;;;;-2.16;77.34;96382.53;5092995;28;20145;-64
2021/11/26 02:36:27;;;;;;;5.88;4.45;;;;;;;-2.14;76.83;96385.94;5093052;28;20032;-67
2021/11/26 02:38:53;;;;;;;8.48;4.70;;;;;;;-2.22;76.72;96378.19;5092807;28;20035;-63
2021/11/26 02:41:19;;;;;;;7.43;4.43;;;;;;;-2.21;76.72;96389.28;5093013;28;20028;-63
2021/11/26 02:43:45;;;;;;;7.78;3.58;;;;;;;-2.26;77.16;96379.00;5092971;28;20094;-62
2021/11/26 02:46:10;;;;;;;8.55;4.47;;;;;;;-2.32;77.49;96373.81;5092992;28;20102;-64
2021/11/26 02:48:37;;;;;;;8.18;4.70;;;;;;;-2.31;77.75;96372.97;5092865;28;20077;-65
2021/11/26 02:51:03;;;;;;;9.48;5.15;;;;;;;-2.35;78.75;96368.66;5092766;28;20056;-63
2021/11/26 02:53:29;;;;;;;7.32;5.03;;;;;;;-2.32;78.63;96373.81;5092691;28;20027;-65
2021/11/26 02:55:55;;;;;;;6.30;4.65;;;;;;;-2.37;78.30;96368.66;5092713;28;20032;-62
2021/11/26 02:58:20;;;;;;;8.48;4.82;;;;;;;-2.37;78.15;96375.47;5092817;28;20103;-63
2021/11/26 03:00:49;;;;;;;6.82;4.63;;;;;;;-2.45;78.45;96376.25;5092734;28;20020;-65
2021/11/26 03:03:14;;;;;;;5.82;4.20;;;;;;;-2.40;78.39;96384.00;5092650;28;20024;-64
2021/11/26 03:05:40;;;;;;;9.32;5.20;;;;;;;-2.42;78.67;96383.97;5092623;28;20024;-64
2021/11/26 03:08:07;;;;;;;9.50;4.85;;;;;;;-2.33;78.33;96377.22;5092711;28;20048;-67
2021/11/26 03:10:34;;;;;;;7.07;4.30;;;;;;;-2.41;78.34;96372.00;5092765;28;20426;-65
2021/11/26 03:13:03;;;;;;;6.82;4.30;;;;;;;-2.50;78.13;96367.63;5092461;28;20378;-66
2021/11/26 03:15:30;;;;;;;5.75;3.42;;;;;;;-2.57;78.62;96361.59;5092688;28;20017;-63
2021/11/26 03:17:56;;;;;;;7.45;4.57;;;;;;;-2.57;78.65;96365.84;5092509;28;20024;-63
2021/11/26 03:20:23;;;;;;;7.47;4.65;;;;;;;-2.52;78.72;96369.34;5092352;28;20052;-66
2021/11/26 03:22:49;;;;;;;8.25;4.40;;;;;;;-2.62;78.96;96367.53;5092507;28;20474;-64
2021/11/26 03:25:16;;;;;;;10.20;4.60;;;;;;;-2.59;79.04;96352.19;5092501;28;20028;-63
2021/11/26 03:27:43;;;;;;;6.35;4.82;;;;;;;-2.59;78.95;96350.47;5096010;28;20023;-63
2021/11/26 03:30:11;;;;;;;7.25;4.75;;;;;;;-2.55;78.80;96351.38;5096064;28;20377;-63
2021/11/26 03:32:37;;;;;;;6.15;4.22;;;;;;;-2.55;78.68;96347.13;5096196;28;20023;-66
2021/11/26 03:35:04;;;;;;;7.68;4.78;;;;;;;-2.51;78.48;96345.44;5096066;28;20374;-64
2021/11/26 03:37:29;;;;;;;6.22;4.05;;;;;;;-2.45;78.48;96342.06;5095895;28;20474;-64
2021/11/26 03:39:55;;;;;;;9.95;5.32;;;;;;;-2.41;78.23;96336.13;5095845;28;20123;-63
2021/11/26 03:42:20;;;;;;;16.50;6.20;;;;;;;-2.38;78.07;96336.16;5095861;28;20046;-65
2021/11/26 03:44:46;;;;;;;9.93;5.05;;;;;;;-2.38;77.70;96325.06;5095828;28;20027;-67
2021/11/26 03:47:12;;;;;;;7.25;4.40;;;;;;;-2.43;78.32;96325.88;5095856;28;20059;-63
2021/11/26 03:49:37;;;;;;;8.40;5.65;;;;;;;-2.39;78.22;96319.06;5095798;28;20035;-65
2021/11/26 03:52:03;;;;;;;6.60;4.43;;;;;;;-2.48;78.72;96316.41;5095663;28;20020;-64
2021/11/26 03:54:29;;;;;;;7.80;5.43;;;;;;;-2.55;79.15;96307.81;5095658;28;20115;-63
2021/11/26 03:56:55;;;;;;;9.32;5.35;;;;;;;-2.52;79.32;96312.13;5095853;28;20031;-63
2021/11/26 03:59:20;;;;;;;6.68;5.30;;;;;;;-2.52;79.61;96305.28;5095668;28;20020;-67
2021/11/26 04:01:46;;;;;;;12.00;6.47;;;;;;;-2.51;79.75;96301.88;5095478;28;20032;-65
2021/11/26 04:04:11;;;;;;;16.95;7.35;;;;;;;-2.44;79.27;96300.25;5095404;28;20032;-64
2021/11/26 04:06:37;;;;;;;8.88;5.25;;;;;;;-2.38;78.48;96295.16;5095437;28;20508;-66
2021/11/26 04:09:04;;;;;;;9.10;6.00;;;;;;;-2.36;77.96;96296.03;5095321;28;20024;-66
2021/11/26 04:11:33;;;;;;;10.85;6.22;;;;;;;-2.32;77.49;96296.94;5095473;28;20031;-67
2021/11/26 04:13:59;;;;;;;7.35;4.93;;;;;;;-2.30;77.27;96302.91;5095146;28;20035;-62
2021/11/26 04:16:25;;;;;;;9.25;5.22;;;;;;;-2.27;76.73;96300.38;5095502;28;20024;-63
2021/11/26 04:18:50;;;;;;;9.13;5.38;;;;;;;-2.24;76.45;96304.66;5095312;28;20122;-63
2021/11/26 04:21:16;;;;;;;9.02;5.55;;;;;;;-2.28;76.80;96308.94;5095073;28;20039;-66
2021/11/26 04:23:44;;;;;;;6.90;5.07;;;;;;;-2.29;77.18;96292.69;5095205;28;20016;-65
2021/11/26 04:26:09;;;;;;;6.40;4.40;;;;;;;-2.24;77.12;96295.28;5095111;28;20024;-62
2021/11/26 04:28:35;;;;;;;8.82;4.72;;;;;;;-2.29;77.27;96287.56;5094891;28;20111;-64
2021/11/26 04:31:02;;;;;;;5.45;4.35;;;;;;;-2.26;77.45;96283.31;5094967;28;20018;-65
2021/11/26 04:33:28;;;;;;;6.00;4.25;;;;;;;-2.34;77.55;96291.81;5094937;28;20020;-66
2021/11/26 04:35:54;;;;;;;7.28;3.80;;;;;;;-2.34;78.58;96293.50;5094711;28;20038;-63
2021/11/26 04:38:20;;;;;;;5.95;4.10;;;;;;;-2.30;78.16;96284.97;5094773;28;20028;-64
2021/11/26 04:40:46;;;;;;;7.68;4.55;;;;;;;-2.36;78.22;96282.34;5094744;28;20359;-63
2021/11/26 04:43:13;;;;;;;6.68;4.10;;;;;;;-2.39;78.12;96272.94;5094767;28;20430;-64
2021/11/26 04:45:39;;;;;;;10.50;5.13;;;;;;;-2.41;79.77;96280.63;5094736;28;20020;-64
2021/11/26 04:48:05;;;;;;;7.50;5.00;;;;;;;-2.42;79.67;96266.09;5094785;28;20392;-64
2021/11/26 04:50:30;;;;;;;9.80;6.22;;;;;;;-2.34;79.82;96265.31;5094611;28;20016;-64
2021/11/26 04:52:56;;;;;;;8.68;6.63;;;;;;;-2.34;80.40;96262.75;5094550;28;20484;-66
2021/11/26 04:55:21;;;;;;;6.45;5.38;;;;;;;-2.30;80.12;96249.97;5094403;28;20402;-66
2021/11/26 04:57:47;;;;;;;6.60;4.75;;;;;;;-2.22;79.78;96244.91;5094452;28;20020;-66
2021/11/26 05:00:16;;;;;;;7.13;4.38;;;;;;;-2.14;79.98;96247.50;5094340;28;20471;-63
2021/11/26 05:02:43;;;;;;;6.25;4.80;;;;;;;-2.10;79.08;96238.16;5094259;28;20052;-64
2021/11/26 05:05:10;;;;;;;9.82;5.18;;;;;;;-2.06;78.82;96239.88;5094261;28;20020;-65
2021/11/26 05:07:35;;;;;;;6.28;4.43;;;;;;;-2.06;78.78;96245.88;5094320;28;20069;-63
2021/11/26 05:10:04;;;;;;;10.20;4.07;;;;;;;-2.04;78.11;96239.03;5094251;28;20032;-66
2021/11/26 05:12:39;;;;;;;4.65;3.50;;;;;;;-2.01;77.38;96235.66;5094268;28;20084;-66
2021/11/26 05:15:07;;;;;;;5.70;4.03;;;;;;;-2.07;76.91;96241.59;5094050;28;20039;-63
2021/11/26 05:17:33;;;;;;;6.93;4.43;;;;;;;-2.01;76.87;96234.78;5094174;28;20413;-63
2021/11/26 05:19:58;;;;;;;10.20;4.55;;;;;;;-1.98;76.73;96251.06;5094000;28;20039;-63
2021/11/26 05:22:25;;;;;;;5.88;4.63;;;;;;;-1.91;77.05;96249.38;5093986;28;20036;-66
2021/11/26 05:24:51;;;;;;;5.80;3.65;;;;;;;-1.90;75.94;96256.22;5093902;28;20046;-65
2021/11/26 05:27:17;;;;;;;5.43;3.78;;;;;;;-1.89;76.11;96265.66;5093844;28;20381;-66
2021/11/26 05:29:42;;;;;;;8.77;4.57;;;;;;;-1.86;75.80;96272.50;5093812;28;20099;-64
2021/11/26 05:32:09;;;;;;;5.00;3.95;;;;;;;-1.86;75.79;96270.81;5093757;28;20020;-66
2021/11/26 05:34:35;;;;;;;6.15;4.25;;;;;;;-1.78;75.91;96286.22;5093878;28;20024;-65
2021/11/26 05:37:01;;;;;;;8.52;4.47;;;;;;;-1.78;76.16;96284.53;5093693;28;20061;-66
2021/11/26 05:39:27;;;;;;;8.20;4.10;;;;;;;-1.74;76.27;96280.28;5093617;28;20401;-64
2021/11/26 05:41:52;;;;;;;7.93;4.10;;;;;;;-1.82;76.55;96271.66;5093665;28;20036;-65
2021/11/26 05:44:18;;;;;;;7.07;4.57;;;;;;;-1.80;76.94;96272.56;5093661;28;20028;-63
2021/11/26 05:46:44;;;;;;;7.47;5.32;;;;;;;-1.81;77.76;96276.81;5093573;28;20027;-65
2021/11/26 05:49:09;;;;;;;10.63;4.28;;;;;;;-1.80;77.44;96277.69;5092922;28;20081;-65
2021/11/26 05:51:35;;;;;;;8.55;4.93;;;;;;;-1.76;78.33;96274.28;5093504;28;20382;-63
2021/11/26 05:54:01;;;;;;;7.70;4.93;;;;;;;-1.68;78.15;96264.91;5092235;28;20028;-63
2021/11/26 05:56:27;;;;;;;6.97;4.45;;;;;;;-1.56;77.78;96263.28;5093376;28;20084;-63
2021/11/26 05:58:54;;;;;;;9.13;4.35;;;;;;;-1.45;77.56;96246.22;5093391;28;20039;-66
2021/11/26 06:01:19;;;;;;;9.55;5.50;;;;;;;-0.90;78.09;96244.72;5093382;28;20393;-63
2021/11/26 06:03:45;;;;;;;8.35;4.07;;;;;;;0.55;74.57;96241.25;5093384;28;20024;-67
2021/11/26 06:06:10;;;;;;;4.70;3.53;;;;;;;2.16;69.48;96242.84;5093296;28;20104;-65
2021/11/26 06:08:36;;;;;;;5.00;3.00;;;;;;;3.55;63.66;96243.78;5093281;28;20020;-62
2021/11/26 06:11:02;;;;;;;4.53;2.50;;;;;;;4.79;60.98;96251.16;5093300;28;20034;-65
2021/11/26 06:13:28;;;;;;;3.17;2.15;;;;;;;6.26;55.95;96252.31;5093281;28;20089;-67
2021/11/26 06:15:53;;;;;;;4.15;2.88;;;;;;;7.55;49.91;96238.31;5093203;28;20462;-65
2021/11/26 06:18:19;;;;;;;2.90;2.22;;;;;;;8.61;47.23;96248.88;5093104;28;20028;-65
2021/11/26 06:20:45;;;;;;;4.57;2.72;;;;;;;9.67;45.61;96247.63;5092919;28;20044;-63
2021/11/26 06:23:10;;;;;;;4.25;2.63;;;;;;;10.45;42.72;96250.63;5093161;28;20024;-64
2021/11/26 06:25:36;;;;;;;5.10;2.70;;;;;;;11.08;41.33;96240.13;5093290;28;20061;-63
2021/11/26 06:28:02;;;;;;;3.72;2.85;;;;;;;11.51;40.56;96237.31;5093106;28;20024;-65
2021/11/26 06:30:28;;;;;;;3.63;2.38;;;;;;;11.90;38.89;96225.00;5093029;28;20024;-63
2021/11/26 06:32:54;;;;;;;4.45;3.10;;;;;;;12.18;38.58;96214.94;5093095;28;20410;-62
2021/11/26 06:35:22;;;;;;;6.43;3.17;;;;;;;12.09;38.91;96205.75;5093098;28;20477;-68
2021/11/26 06:37:49;;;;;;;4.72;2.67;;;;;;;11.73;39.25;96210.06;5093046;28;20107;-67
2021/11/26 06:40:15;;;;;;;3.25;2.50;;;;;;;11.19;40.81;96193.34;5093082;28;20024;-62
2021/11/26 06:42:41;;;;;;;4.40;3.25;;;;;;;10.98;41.66;96182.09;5092954;28;20045;-63
2021/11/26 06:45:08;;;;;;;4.90;2.97;;;;;;;10.76;42.21;96184.81;5092913;28;20408;-64
2021/11/26 06:47:34;;;;;;;4.05;2.50;;;;;;;10.73;42.19;96181.44;5092993;28;20470;-64
2021/11/26 06:50:00;;;;;;;2.92;2.35;;;;;;;10.86;41.92;96178.25;5092910;28;20035;-66
2021/11/26 06:52:26;;;;;;;3.08;2.35;;;;;;;10.76;42.64;96185.69;5092890;28;20087;-64
2021/11/26 06:54:51;;;;;;;4.15;2.97;;;;;;;11.21;41.93;96178.44;5092697;28;20024;-66
2021/11/26 06:57:17;;;;;;;4.80;3.30;;;;;;;11.96;40.62;96189.78;5092855;28;20027;-62
2021/11/26 06:59:43;;;;;;;5.43;3.63;;;;;;;11.94;40.88;96183.75;5094730;28;20027;-66
2021/11/26 07:02:09;;;;;;;5.95;3.92;;;;;;;11.96;41.05;96177.53;5096750;28;20024;-63
2021/11/26 07:04:35;;;;;;;4.70;3.45;;;;;;;11.85;41.09;96175.44;5096610;28;20047;-63
2021/11/26 07:07:01;;;;;;;10.10;6.60;;;;;;;11.67;41.62;96161.44;5096539;28;20020;-63
2021/11/26 07:09:27;;;;;;;5.13;4.63;;;;;;;11.41;42.17;96150.44;5096616;28;20028;-62
2021/11/26 07:11:53;;;;;;;5.05;3.38;;;;;;;11.02;42.72;96141.78;5095310;28;20381;-67
2021/11/26 07:14:19;;;;;;;6.28;4.40;;;;;;;10.72;43.49;96142.25;5096509;28;20544;-65
2021/11/26 07:16:45;;;;;;;4.93;3.55;;;;;;;10.14;44.84;96147.31;5096501;28;20032;-64
2021/11/26 07:19:10;;;;;;;3.50;3.20;;;;;;;9.72;45.80;96154.25;5096460;28;20032;-64
2021/11/26 07:21:36;;;;;;;5.07;3.70;;;;;;;9.39;47.05;96141.66;5096241;28;20051;-66
2021/11/26 07:24:01;;;;;;;5.22;3.70;;;;;;;9.04;49.47;96160.38;5096372;28;20512;-63
2021/11/26 07:26:27;;;;;;;4.82;3.75;;;;;;;8.44;51.15;96159.91;5096321;28;20020;-62
2021/11/26 07:28:53;;;;;;;6.80;3.63;;;;;;;7.98;52.05;96162.34;5096196;28;20458;-62
2021/11/26 07:31:19;;;;;;;4.53;3.63;;;;;;;7.45;54.04;96153.63;5096084;28;20097;-64
2021/11/26 07:33:45;;;;;;;6.10;4.20;;;;;;;7.18;54.70;96136.22;5095943;28;20031;-62
2021/11/26 07:36:11;;;;;;;6.80;4.20;;;;;;;6.94;56.49;96143.88;5096240;28;20026;-65
2021/11/26 07:38:38;;;;;;;4.55;3.65;;;;;;;6.46;58.12;96142.66;5095990;28;20051;-63
2021/11/26 07:41:03;;;;;;;5.85;4.68;;;;;;;5.96;60.54;96148.28;5095877;28;20485;-64
2021/11/26 07:43:29;;;;;;;5.03;4.13;;;;;;;5.36;62.67;96154.06;5095949;28;20027;-62
2021/11/26 07:46:01;;;;;;;12.85;9.43;;;;;;;4.94;64.37;96145.47;5095941;28;20028;-65
2021/11/26 07:48:28;;;;;;;8.93;6.75;;;;;;;4.77;64.82;96138.91;5095919;28;20054;-61
2021/11/26 07:50:55;;;;;;;9.57;6.97;;;;;;;4.72;65.62;96129.53;5095868;28;20036;-66
2021/11/26 07:53:22;;;;;;;8.93;6.43;;;;;;;4.73;65.96;96123.47;5095609;28;20063;-67
2021/11/26 07:55:49;;;;;;;11.02;6.53;;;;;;;4.65;66.27;96116.72;5095636;28;20073;-63
2021/11/26 07:58:18;;;;;;;9.52;6.60;;;;;;;4.58;67.34;96098.72;5095730;28;20146;-66
2021/11/26 08:00:44;;;;;;;8.88;6.05;;;;;;;4.50;68.07;96091.13;5095673;28;20028;-65
2021/11/26 08:03:12;;;;;;;7.18;5.53;;;;;;;4.44;69.36;96099.88;5095680;28;20123;-64
2021/11/26 08:05:38;;;;;;;7.75;3.92;;;;;;;4.20;69.58;96098.63;5095424;28;20035;-63
2021/11/26 08:08:09;;;;;;;6.05;3.85;;;;;;;4.34;69.68;96094.03;5095469;28;20020;-65
2021/11/26 08:10:38;;;;;;;5.13;2.40;;;;;;;4.51;68.37;96085.03;5094849;28;20035;-65
2021/11/26 08:13:05;;;;;;;6.60;5.43;;;;;;;4.58;70.68;96085.78;5095266;28;20012;-67
2021/11/26 08:15:32;;;;;;;8.43;5.55;;;;;;;4.45;70.91;96087.78;5095408;28;20028;-64
2021/11/26 08:18:03;;;;;;;8.95;5.55;;;;;;;4.49;70.82;96073.88;5095140;28;20478;-65
2021/11/26 08:20:29;;;;;;;8.90;5.75;;;;;;;4.59;70.29;96069.34;5095010;28;20044;-64
2021/11/26 08:22:55;;;;;;;7.90;5.38;;;;;;;4.55;70.25;96058.22;5095167;28;20444;-62
2021/11/26 08:25:26;;;;;;;7.95;4.63;;;;;;;4.66;70.31;96047.59;5095305;28;20050;-63
2021/11/26 08:27:53;;;;;;;7.38;5.47;;;;;;;4.75;71.80;96046.53;5095150;28;20028;-63
2021/11/26 08:30:20;;;;;;;9.18;5.88;;;;;;;4.89;71.49;96038.44;5095009;28;20020;-67
2021/11/26 08:32:46;;;;;;;8.40;6.45;;;;;;;4.94;73.02;96034.00;5094985;28;20463;-67
2021/11/26 08:35:12;;;;;;;7.13;5.72;;;;;;;5.09;72.70;96047.50;5094961;28;20028;-62
2021/11/26 08:37:39;;;;;;;9.80;5.47;;;;;;;5.24;69.84;96041.91;5094944;28;20516;-62
2021/11/26 08:40:06;;;;;;;4.25;2.75;;;;;;;5.39;66.85;96022.53;5094904;28;20024;-65
2021/11/26 08:42:32;;;;;;;4.72;3.45;;;;;;;5.50;66.47;96021.41;5094939;28;20069;-62
2021/11/26 08:44:58;;;;;;;5.70;2.63;;;;;;;5.60;65.55;96035.84;5094654;28;20021;-64
2021/11/26 08:47:24;;;;;;;3.00;2.25;;;;;;;5.61;66.13;96036.69;5094824;28;20020;-62
2021/11/26 08:49:50;;;;;;;5.07;2.72;;;;;;;5.55;64.81;96024.72;5094793;28;20153;-62
2021/11/26 08:52:15;;;;;;;7.82;2.85;;;;;;;5.45;65.87;95998.19;5094576;28;20118;-64
2021/11/26 08:54:41;;;;;;;5.63;2.42;;;;;;;5.42;66.45;95995.69;5094484;28;20039;-64
2021/11/26 08:57:08;;;;;;;4.97;2.65;;;;;;;5.51;66.63;95995.41;5094551;28;20031;-64
2021/11/26 08:59:34;;;;;;;3.50;2.72;;;;;;;5.60;67.04;95998.66;5094539;28;20031;-63
2021/11/26 09:02:01;;;;;;;4.80;2.80;;;;;;;5.66;66.31;95991.56;5094430;28;20016;-62
2021/11/26 09:04:28;;;;;;;3.40;2.60;;;;;;;5.67;65.53;96005.38;5094353;28;20028;-64
2021/11/26 09:06:54;;;;;;;3.20;2.50;;;;;;;5.73;66.83;95991.41;5094428;28;20020;-66
2021/11/26 09:09:21;;;;;;;3.25;2.47;;;;;;;5.80;66.16;96006.75;5094393;28;20103;-65
2021/11/26 09:11:47;;;;;;;4.30;2.42;;;;;;;5.74;65.38;95991.34;5094264;28;20052;-64
2021/11/26 09:14:13;;;;;;;8.07;2.88;;;;;;;5.78;65.70;95992.97;5094235;28;20028;-62
2021/11/26 09:16:39;;;;;;;4.32;3.05;;;;;;;5.80;65.79;95980.81;5094158;28;20082;-65
2021/11/26 09:19:05;;;;;;;8.63;4.18;;;;;;;5.88;66.22;95969.34;5094117;28;20039;-64
2021/11/26 09:21:31;;;;;;;8.02;5.00;;;;;;;5.85;65.47;95949.53;5093852;28;20437;-63
2021/11/26 09:23:57;;;;;;;3.35;2.40;;;;;;;5.79;66.47;95937.59;5093203;28;20420;-64
2021/11/26 09:26:23;;;;;;;4.13;2.15;;;;;;;5.83;66.36;95914.97;5094190;28;20419;-63
2021/11/26 09:28:49;;;;;;;3.53;2.38;;;;;;;5.83;66.44;95896.78;5094091;28;20048;-68
2021/11/26 09:31:16;;;;;;;5.68;2.80;;;;;;;5.82;66.52;95882.13;5093966;28;20016;-63
2021/11/26 09:33:42;;;;;;;4.72;2.60;;;;;;;5.81;66.51;95890.81;5093708;28;20028;-63
2021/11/26 09:36:10;;;;;;;4.38;2.45;;;;;;;5.80;67.33;95889.97;5093904;28;20174;-66
2021/11/26 09:38:38;;;;;;;5.93;2.90;;;;;;;5.71;67.28;95873.78;5093849;28;20462;-65
2021/11/26 09:41:06;;;;;;;5.97;2.78;;;;;;;5.61;68.07;95853.31;5093647;28;20110;-63
2021/11/26 09:43:31;;;;;;;4.65;2.42;;;;;;;5.59;68.21;95849.91;5093526;28;20020;-63
2021/11/26 09:46:01;;;;;;;3.67;2.72;;;;;;;5.55;68.78;95840.53;5093674;28;20066;-66
2021/11/26 09:48:27;;;;;;;5.75;2.28;;;;;;;5.65;68.58;95820.31;5093898;28;20374;-65
2021/11/26 09:50:53;;;;;;;5.80;2.78;;;;;;;5.69;69.58;95817.59;5093760;28;20016;-64
2021/11/26 09:53:21;;;;;;;3.88;3.00;;;;;;;5.76;69.06;95805.31;5093439;28;20020;-65
2021/11/26 09:56:05;;;;;;;4.85;2.88;;;;;;;5.75;69.89;95813.13;5093417;28;20016;-63
2021/11/26 09:58:31;;;;;;;3.65;2.75;;;;;;;5.73;68.68;95797.59;5093469;28;20024;-66
2021/11/26 10:01:00;;;;;;;8.25;3.58;;;;;;;5.68;69.41;95808.13;5093531;28;20024;-64
2021/11/26 10:03:47;;;;;;;4.38;3.13;;;;;;;5.67;69.49;95790.00;5093401;28;20028;-67
2021/11/26 10:06:30;;;;;;;6.57;4.20;;;;;;;5.64;72.10;95785.75;5093370;28;20020;-65
2021/11/26 10:09:07;;;;;;;6.00;4.13;;;;;;;5.66;71.58;95768.38;5093344;28;20115;-60
2021/11/26 10:11:38;;;;;;;7.45;4.45;;;;;;;5.57;72.62;95761.72;5093442;28;20056;-63
2021/11/26 10:14:28;;;;;;;7.20;4.30;;;;;;;5.34;72.57;95740.81;5093218;28;20032;-66
2021/11/26 10:17:13;;;;;;;7.32;4.72;;;;;;;5.29;74.38;95734.03;5093300;28;20057;-63
2021/11/26 10:19:38;;;;;;;9.65;4.75;;;;;;;5.35;73.80;95733.00;5092997;28;20466;-63
2021/11/26 10:22:16;;;;;;;7.97;4.90;;;;;;;5.37;74.98;95728.63;5093235;28;20024;-63
2021/11/26 10:24:43;;;;;;;8.68;4.63;;;;;;;5.34;74.81;95735.63;5093128;28;20016;-65
2021/11/26 10:27:09;;;;;;;8.25;5.43;;;;;;;5.29;74.98;95723.66;5093072;28;20020;-60
2021/11/26 10:29:37;;;;;;;8.25;5.32;;;;;;;5.28;74.88;95726.31;5093023;28;20035;-65
2021/11/26 10:32:06;;;;;;;8.45;5.93;;;;;;;5.15;75.39;95725.81;5093229;28;20031;-66
2021/11/26 10:34:32;;;;;;;6.20;5.25;;;;;;;5.18;76.67;95734.34;5094697;28;20024;-66
2021/11/26 10:36:58;;;;;;;8.07;5.60;;;;;;;5.22;75.36;95748.09;5097242;28;20020;-63
2021/11/26 10:39:24;;;;;;;9.57;5.82;;;;;;;5.13;75.92;95735.38;5097229;28;20524;-63
2021/11/26 10:41:54;;;;;;;9.10;6.07;;;;;;;5.07;76.39;95731.22;5097072;28;20042;-65
2021/11/26 10:44:32;;;;;;;5.30;4.07;;;;;;;5.05;76.59;95726.09;5097249;28;20035;-60
2021/11/26 10:47:13;;;;;;;7.32;5.68;;;;;;;4.98;76.96;95724.56;5096957;28;20089;-68
2021/11/26 10:52:20;;;;;;;9.25;6.47;;;;;;;4.95;77.59;95729.84;5097140;28;20036;-64
2021/11/26 11:00:03;;;;;;;10.15;7.13;;;;;;;4.89;77.81;95749.00;5096937;28;20647;-66
2021/11/26 11:02:36;;;;;;;13.90;7.85;;;;;;;4.76;78.43;95739.88;5096838;28;20024;-66
2021/11/26 11:05:07;;;;;;;12.15;8.10;;;;;;;4.72;78.78;95726.16;5096983;28;20028;-67
2021/11/26 11:07:46;;;;;;;11.25;7.35;;;;;;;4.74;78.76;95685.50;5096794;28;20024;-63
2021/11/26 11:10:36;;;;;;;14.65;8.95;;;;;;;4.71;79.42;95677.81;5096605;28;20032;-67
2021/11/26 11:13:10;;;;;;;15.25;9.00;;;;;;;4.73;79.40;95663.06;5091396;28;20047;-61
2021/11/26 11:15:35;;;;;;;12.20;8.38;;;;;;;4.76;79.81;95647.44;5096558;28;20036;-62
2021/11/26 11:18:02;;;;;;;16.25;8.80;;;;;;;4.83;79.48;95640.34;5096398;28;20128;-62
2021/11/26 11:20:28;;;;;;;14.27;8.45;;;;;;;4.91;79.13;95640.13;5096256;28;20401;-64
2021/11/26 11:22:54;;;;;;;13.05;8.43;;;;;;;5.02;78.81;95678.66;5096268;28;20020;-64
2021/11/26 11:25:29;;;;;;;17.35;9.38;;;;;;;4.99;78.57;95670.97;5096389;28;20024;-66
2021/11/26 11:28:15;;;;;;;12.20;7.88;;;;;;;5.08;78.63;95662.91;5096471;28;20024;-67
2021/11/26 11:30:42;;;;;;;12.15;8.35;;;;;;;5.06;78.39;95647.41;5095952;28;20123;-61
2021/11/26 11:33:09;;;;;;;20.83;9.10;;;;;;;5.06;78.57;95652.59;5096147;28;20024;-63
2021/11/26 11:35:38;;;;;;;11.32;8.00;;;;;;;5.25;78.29;95667.59;5096182;28;20028;-62
2021/11/26 11:38:07;;;;;;;13.77;8.15;;;;;;;5.21;78.18;95667.75;5096061;28;20024;-64
2021/11/26 11:40:35;;;;;;;13.55;9.48;;;;;;;5.19;79.81;95678.16;5096236;28;20044;-66
2021/11/26 11:43:14;;;;;;;14.00;10.05;;;;;;;5.25;78.76;95662.41;5095896;28;20574;-64
2021/11/26 11:45:53;;;;;;;22.33;11.07;;;;;;;5.30;78.88;95665.69;5095073;28;20038;-63